Date,TemperatureHighF,TemperatureAvgF,TemperatureLowF,DewpointHighF,DewpointAvgF,DewpointLowF,HumidityHigh,HumidityAvg,HumidityLow,PressureMaxIn,PressureMinIn,WindSpeedMaxMPH,WindSpeedAvgMPH,GustSpeedMaxMPH,PrecipitationSumIn
2013-1-1,20,5,-9,16,0,-13,92,82,73,30.45,30.20,0,0,0,0.00
2013-1-2,21,18,15,18,15,13,90,89,83,30.23,30.08,0,0,0,0.00
2013-1-3,19,12,9,15,8,3,86,81,71,30.42,30.22,0,0,0,0.00
2013-1-4,28,20,14,18,14,11,86,77,63,30.26,30.16,0,0,0,0.00
2013-1-5,24,16,11,15,11,8,89,81,66,30.22,29.99,0,0,0,0.00
2013-1-6,21,15,9,14,10,4,89,80,69,30.37,30.13,0,0,0,0.00
2013-1-7,36,29,19,26,22,15,84,77,65,30.15,30.01,0,0,0,0.00
2013-1-8,36,27,17,29,22,14,90,84,71,30.09,29.86,0,0,0,0.00
2013-1-9,34,30,26,27,23,20,85,75,65,30.46,30.02,0,0,0,0.00
2013-1-10,41,35,28,32,26,22,92,71,48,30.40,29.82,0,0,0,0.00
2013-1-11,40,36,34,39,34,32,95,94,92,29.82,29.45,0,0,0,0.00
2013-1-12,37,14,3,35,8,-3,92,77,68,30.22,29.47,0,0,0,0.00
2013-1-13,8,4,0,2,-2,-5,82,78,72,30.42,30.22,0,0,0,0.00
2013-1-14,14,7,3,6,2,-1,92,78,64,30.58,30.41,0,0,0,0.00
2013-1-15,30,19,10,19,12,6,87,74,57,30.44,29.96,0,0,0,0.00
2013-1-16,36,26,11,31,19,-1,91,75,50,30.36,29.78,0,0,0,0.00
2013-1-17,19,11,4,10,3,-4,78,67,59,30.54,30.35,0,0,0,0.00
2013-1-18,39,29,16,30,23,10,86,79,69,30.45,29.85,0,0,0,0.00
2013-1-19,39,23,2,31,17,-5,90,78,59,30.36,29.77,0,0,0,0.00
2013-1-20,7,2,-2,1,-5,-10,79,70,59,30.57,30.36,0,0,0,0.00
2013-1-21,-2,-6,-11,-9,-14,-18,78,69,62,30.55,30.47,0,0,0,0.00
2013-1-22,5,-4,-12,-2,-11,-17,78,72,65,30.62,30.44,0,0,0,0.00
2013-1-23,15,7,-4,8,-2,-15,85,68,51,30.79,30.33,0,0,0,0.00
2013-1-24,14,3,-5,2,-7,-16,66,61,53,30.85,30.33,0,0,0,0.00
2013-1-25,18,12,3,13,4,-4,80,69,59,30.47,30.11,0,0,0,0.00
2013-1-26,24,12,-1,13,4,-5,92,70,56,30.50,30.25,0,0,0,0.00
2013-1-27,33,30,23,29,23,13,93,76,62,30.25,29.90,0,0,0,0.00
2013-1-28,35,32,31,33,30,29,94,93,90,29.99,29.90,0,0,0,0.00
2013-1-29,35,32,27,31,28,22,94,88,80,29.85,29.63,0,0,0,0.00
2013-1-30,27,17,8,22,11,1,83,77,71,29.89,29.77,0,0,0,0.00
2013-1-31,2,-1,-7,-6,-9,-15,76,70,66,30.46,30.07,0,0,0,0.00
2013-2-1,5,-4,-12,1,-10,-18,84,73,58,30.50,30.24,0,0,0,0.00
2013-2-2,11,6,1,6,0,-4,92,77,65,30.36,30.14,0,0,0,0.00
2013-2-3,12,9,4,9,4,-1,92,79,67,30.25,30.12,0,0,0,0.00
2013-2-4,15,10,3,11,2,-3,87,72,54,30.22,29.89,0,0,0,0.00
2013-2-5,28,22,8,25,16,4,91,81,59,30.20,29.80,0,0,0,0.00
2013-2-6,27,16,4,20,12,0,87,84,73,30.23,30.06,0,0,0,0.00
2013-2-7,27,25,20,23,21,17,91,86,78,30.38,30.11,0,0,0,0.00
2013-2-8,26,22,16,21,18,12,85,81,74,30.49,30.33,0,0,0,0.00
2013-2-9,32,28,25,29,25,21,91,87,84,30.33,30.03,0,0,0,0.00
2013-2-10,33,30,28,31,28,25,94,91,87,30.03,29.38,0,0,0,0.00
2013-2-11,29,24,14,27,19,10,93,83,76,30.16,29.45,0,0,0,0.00
2013-2-12,33,23,13,24,17,9,92,80,67,30.16,29.93,0,0,0,0.00
2013-2-13,37,28,18,31,23,15,92,83,68,29.93,29.67,0,0,0,0.00
2013-2-14,32,25,11,30,18,3,93,77,48,30.30,29.68,0,0,0,0.00
2013-2-15,18,9,3,6,2,-1,84,72,57,30.45,30.30,0,0,0,0.00
2013-2-16,25,9,1,11,3,-2,88,77,51,30.42,30.25,0,0,0,0.00
2013-2-17,32,21,8,24,15,3,84,76,65,30.26,29.73,0,0,0,0.00
2013-2-18,33,22,6,30,17,1,89,80,73,29.95,29.62,0,0,0,0.00
2013-2-19,6,2,-3,1,-5,-10,81,70,58,30.54,29.95,0,0,0,0.00
2013-2-20,17,4,-7,3,-4,-12,81,69,52,30.64,30.54,0,0,0,0.00
2013-2-21,24,14,3,14,6,-2,83,70,55,30.60,30.23,0,0,0,0.00
2013-2-22,29,23,20,22,19,14,88,84,69,30.23,29.99,0,0,0,0.00
2013-2-23,28,21,13,22,18,10,90,85,73,30.09,29.97,0,0,0,0.00
2013-2-24,38,19,4,23,13,1,90,77,54,30.24,30.08,0,0,0,0.00
2013-2-25,28,24,19,21,19,15,87,82,73,30.23,30.06,0,0,0,0.00
2013-2-26,36,24,13,27,20,10,91,82,69,30.09,29.93,0,0,0,0.00
2013-2-27,40,31,27,27,24,22,84,75,54,30.06,29.91,0,0,0,0.00
2013-2-28,31,28,23,23,21,16,82,73,67,30.25,30.06,0,0,0,0.00
2013-3-1,31,24,16,18,16,10,80,70,56,30.40,30.25,0,0,0,0.00
2013-3-2,33,20,5,15,11,2,89,70,43,30.40,30.22,0,0,0,0.00
2013-3-3,35,26,19,15,12,10,70,56,39,30.22,29.99,0,0,0,0.00
2013-3-4,28,25,23,21,18,14,89,77,57,30.05,29.96,0,0,0,0.00
2013-3-5,31,26,22,25,22,18,91,85,76,30.34,30.00,0,0,0,0.00
2013-3-6,28,22,12,19,17,9,88,79,69,30.45,30.34,0,0,0,0.00
2013-3-7,34,20,4,22,13,1,90,76,58,30.43,30.32,0,0,0,0.00
2013-3-8,42,29,18,30,23,15,89,79,61,30.36,30.10,0,0,0,0.00
2013-3-9,37,35,33,35,33,28,94,91,79,30.10,29.70,0,0,0,0.00
2013-3-10,34,32,28,32,28,23,94,84,78,29.98,29.80,0,0,0,0.00
2013-3-11,30,27,22,23,21,15,86,79,68,29.90,29.78,0,0,0,0.00
2013-3-12,28,24,20,20,16,11,81,72,53,30.24,29.86,0,0,0,0.00
2013-3-13,29,20,10,18,13,7,87,76,60,30.43,30.24,0,0,0,0.00
2013-3-14,45,31,24,29,24,18,89,75,52,30.28,30.03,0,0,0,0.00
2013-3-15,34,31,24,31,28,22,91,88,82,30.03,29.84,0,0,0,0.00
2013-3-16,24,20,12,22,13,3,90,75,54,30.29,29.92,0,0,0,0.00
2013-3-17,28,18,6,21,8,0,77,66,52,30.32,29.91,0,0,0,0.00
2013-3-18,29,21,11,27,16,5,92,80,71,29.91,29.62,0,0,0,0.00
2013-3-19,21,12,5,7,2,-2,77,65,46,30.27,29.87,0,0,0,0.00
2013-3-20,20,12,4,6,1,-4,70,61,50,30.30,30.19,0,0,0,0.00
2013-3-21,28,15,0,11,4,-4,86,64,47,30.20,30.11,0,0,0,0.00
2013-3-22,38,21,5,17,11,1,87,65,38,30.15,30.09,0,0,0,0.00
2013-3-23,36,26,14,21,16,10,88,67,45,30.19,30.11,0,0,0,0.00
2013-3-24,34,29,25,25,22,20,89,77,62,30.14,30.01,0,0,0,0.00
2013-3-25,38,30,23,23,18,15,82,63,47,30.25,30.08,0,0,0,0.00
2013-3-26,37,27,20,23,19,15,82,72,53,30.34,30.25,0,0,0,0.00
2013-3-27,42,30,16,24,18,13,91,65,41,30.38,30.33,0,0,0,0.00
2013-3-28,46,33,19,29,22,16,89,68,47,30.37,30.29,0,0,0,0.00
2013-3-29,52,40,31,38,32,25,81,73,54,30.30,30.06,0,0,0,0.00
2013-3-30,51,43,34,42,36,-100,89,79,69,30.06,29.86,0,0,0,0.00
2013-3-31,38,33,23,31,24,13,92,71,41,30.12,29.81,0,0,0,0.00
2013-4-1,33,24,16,18,14,10,78,66,48,30.31,30.12,0,0,0,0.00
2013-4-2,37,27,18,17,15,13,83,64,38,30.40,30.30,0,0,0,0.00
2013-4-3,46,33,17,33,22,14,89,66,42,30.42,30.06,0,0,0,0.00
2013-4-4,48,42,32,33,29,24,82,62,43,30.19,30.01,0,0,0,0.00
2013-4-5,42,33,25,32,24,18,90,73,42,30.25,29.89,0,0,0,0.00
2013-4-6,52,41,35,43,34,30,89,78,60,29.90,29.51,0,0,0,0.00
2013-4-7,49,40,35,39,34,30,90,78,59,29.95,29.75,0,0,0,0.00
2013-4-8,44,41,40,41,39,35,94,90,85,30.05,29.67,0,0,0,0.00
2013-4-9,42,37,32,36,31,27,92,78,61,30.18,29.98,0,0,0,0.00
2013-4-10,37,34,30,29,27,24,91,76,62,30.20,29.91,0,0,0,0.00
2013-4-11,34,32,29,31,28,26,93,85,71,29.94,29.75,0,0,0,0.00
2013-4-12,31,30,30,28,27,26,90,89,88,29.87,29.86,0,0,0,0.00
2013-4-13,36,32,28,27,26,24,92,79,65,29.97,29.85,0,0,0,0.00
2013-4-14,36,32,29,34,28,23,93,85,73,29.97,29.48,0,0,0,0.00
2013-4-15,39,35,32,33,29,25,89,78,68,29.99,29.52,0,0,0,0.00
2013-4-16,44,36,32,29,28,26,82,70,53,30.33,29.98,0,0,0,0.00
2013-4-17,41,36,33,34,30,27,92,77,68,30.33,29.94,0,0,0,0.00
2013-4-18,34,32,30,32,30,28,100,92,89,29.96,29.56,0,0,0,0.00
2013-4-19,37,32,28,29,26,19,94,81,52,30.02,29.53,0,0,0,0.00
2013-4-20,43,31,20,20,17,14,85,59,30,30.32,30.01,0,0,0,0.00
2013-4-21,48,40,32,45,35,19,91,82,54,30.33,30.01,0,0,0,0.00
2013-4-22,42,36,31,36,31,29,93,83,63,30.22,30.12,0,0,0,0.00
2013-4-23,40,33,26,29,24,18,92,73,41,30.19,30.09,0,0,0,0.00
2013-4-24,48,36,27,34,28,23,91,74,41,30.10,29.93,0,0,0,0.00
2013-4-25,52,39,31,32,29,27,92,69,42,30.22,30.00,0,0,0,0.00
2013-4-26,70,57,44,45,39,31,76,53,31,30.11,29.95,0,0,0,0.00
2013-4-27,74,58,38,47,36,31,78,47,23,30.11,29.85,0,0,0,0.00
2013-4-28,80,63,50,52,47,44,87,59,32,29.85,29.59,0,0,0,0.00
2013-4-29,76,60,46,56,45,39,88,61,30,29.78,29.49,0,0,0,0.00
2013-4-30,67,62,55,59,46,27,83,57,24,29.93,29.35,0,0,0,0.00
2013-5-1,55,40,33,39,32,28,91,74,49,30.48,29.92,0,0,0,0.00
2013-5-2,47,39,34,29,27,24,75,61,45,30.56,30.43,0,0,0,0.00
2013-5-3,37,34,31,33,28,23,88,78,63,30.44,30.18,0,0,0,0.00
2013-5-4,45,38,32,40,34,29,92,88,82,30.19,30.13,0,0,0,0.00
2013-5-5,66,49,38,49,41,34,90,76,54,30.19,30.07,0,0,0,0.00
2013-5-6,75,60,44,51,46,41,90,64,38,30.10,29.98,0,0,0,0.00
2013-5-7,79,65,51,52,48,45,85,58,33,30.03,29.91,0,0,0,0.00
2013-5-8,76,65,58,56,52,47,87,65,39,29.97,29.90,0,0,0,0.00
2013-5-9,59,53,44,54,47,30,88,80,57,30.10,29.91,0,0,0,0.00
2013-5-10,67,51,35,39,26,-100,76,45,21,30.12,29.85,0,0,0,0.00
2013-5-11,56,46,39,40,26,-100,68,47,32,30.18,29.85,0,0,0,0.00
2013-5-12,59,46,33,26,22,16,67,42,20,30.24,30.09,0,0,0,0.00
2013-5-13,74,57,41,49,35,22,69,46,33,30.11,29.61,0,0,0,0.00
2013-5-14,97,74,53,58,46,33,75,41,16,29.64,29.40,0,0,0,0.00
2013-5-15,79,66,53,49,46,43,73,50,30,29.86,29.62,0,0,0,0.00
2013-5-16,85,66,54,50,28,-100,74,44,24,29.87,29.78,0,0,0,0.00
2013-5-17,68,57,55,54,46,-100,92,79,28,29.94,29.83,0,0,0,0.00
2013-5-18,80,65,56,66,59,53,95,82,59,29.96,29.74,0,0,0,0.00
2013-5-19,79,68,63,67,63,60,94,84,62,29.74,29.49,0,0,0,0.00
2013-5-20,70,64,60,61,59,56,94,83,64,29.52,29.44,0,0,0,0.00
2013-5-21,59,55,47,57,53,44,94,92,90,29.69,29.47,0,0,0,0.00
2013-5-22,52,48,44,48,45,42,95,91,73,29.97,29.68,0,0,0,0.00
2013-5-23,67,53,43,43,37,30,87,57,28,30.32,30.00,0,0,0,0.00
2013-5-24,68,55,44,52,40,30,88,57,38,30.36,30.14,0,0,0,0.00
2013-5-25,60,55,53,50,48,44,90,77,66,30.23,30.17,0,0,0,0.00
2013-5-26,57,55,52,49,44,39,77,68,55,30.19,30.01,0,0,0,0.00
2013-5-27,61,57,53,54,51,48,92,82,71,30.01,29.80,0,0,0,0.00
2013-5-28,60,56,53,56,53,50,94,90,83,29.80,29.68,0,0,0,0.00
2013-5-29,75,65,54,68,60,52,94,85,75,29.78,29.58,0,0,0,0.00
2013-5-30,73,67,63,64,62,61,93,84,68,29.62,29.45,0,0,0,0.00
2013-5-31,74,67,61,61,56,52,91,69,49,29.51,29.45,0,0,0,0.00
2013-6-1,72,59,51,59,52,43,88,77,55,29.91,29.49,0,0,0,0.00
2013-6-2,67,56,46,46,42,40,83,63,39,30.06,29.91,0,0,0,0.00
2013-6-3,70,59,45,48,45,41,91,62,38,30.03,29.90,0,0,0,0.00
2013-6-4,63,59,55,54,50,46,88,73,57,30.03,29.93,0,0,0,0.00
2013-6-5,64,57,53,57,53,50,92,87,75,30.02,29.91,0,0,0,0.00
2013-6-6,57,53,50,52,50,47,92,88,82,30.02,29.94,0,0,0,0.00
2013-6-7,66,57,52,53,51,49,90,81,62,30.03,29.88,0,0,0,0.00
2013-6-8,70,62,54,57,54,51,91,75,56,29.89,29.84,0,0,0,0.00
2013-6-9,67,59,56,62,55,54,92,88,77,29.85,29.74,0,0,0,0.00
2013-6-10,74,65,61,62,60,58,94,84,63,29.83,29.77,0,0,0,0.00
2013-6-11,78,67,58,69,62,56,95,86,68,29.86,29.76,0,0,0,0.00
2013-6-12,75,65,58,65,59,53,95,83,64,29.91,29.75,0,0,0,0.00
2013-6-13,82,68,57,59,55,50,84,64,42,30.06,29.91,0,0,0,0.00
2013-6-14,79,69,59,63,58,51,87,68,55,30.03,29.82,0,0,0,0.00
2013-6-15,79,69,62,69,64,59,94,83,62,29.85,29.79,0,0,0,0.00
2013-6-16,86,70,59,60,54,46,93,62,27,29.88,29.79,0,0,0,0.00
2013-6-17,81,71,61,61,56,52,82,63,41,29.97,29.82,0,0,0,0.00
2013-6-18,80,66,53,61,55,46,80,68,48,30.05,29.96,0,0,0,0.00
2013-6-19,85,73,63,66,59,56,79,64,42,30.01,29.88,0,0,0,0.00
2013-6-20,87,76,70,69,64,60,76,67,46,29.93,29.84,0,0,0,0.00
2013-6-22,84,80,72,71,69,67,84,70,62,29.86,29.78,0,0,0,0.00
2013-6-23,81,73,66,68,66,61,94,79,58,29.82,29.62,0,0,0,0.00
2013-6-24,82,72,63,70,66,61,95,81,63,29.85,29.75,0,0,0,0.00
2013-6-25,88,76,66,74,68,62,89,77,59,29.78,29.64,0,0,0,0.00
2013-6-26,86,78,72,74,70,65,93,77,55,29.75,29.59,0,0,0,0.00
2013-6-27,85,77,68,66,61,54,87,61,36,29.77,29.73,0,0,0,0.00
2013-6-28,77,71,65,63,60,56,92,66,56,29.76,29.71,0,0,0,0.00
2013-6-29,78,68,62,61,58,51,93,73,50,29.95,29.70,0,0,0,0.00
2013-6-30,84,69,56,59,54,51,87,63,35,30.07,29.95,0,0,0,0.00
2013-7-1,87,72,57,62,58,54,92,63,37,30.14,30.07,0,0,0,0.00
2013-7-2,87,72,59,59,55,51,85,59,34,30.11,30.00,0,0,0,0.00
2013-7-3,88,72,58,62,57,52,94,65,31,30.02,29.90,0,0,0,0.00
2013-7-4,87,76,65,64,58,54,77,57,34,29.91,29.79,0,0,0,0.00
2013-7-5,86,78,70,66,62,56,70,58,47,29.83,29.72,0,0,0,0.00
2013-7-6,86,78,73,70,65,61,69,64,57,29.80,29.72,0,0,0,0.00
2013-7-7,91,80,71,75,69,66,92,71,54,29.82,29.73,0,0,0,0.00
2013-7-8,89,73,64,72,66,-100,93,81,55,29.95,29.82,0,0,0,0.00
2013-7-9,83,76,68,72,69,64,93,78,64,29.89,29.66,0,0,0,0.00
2013-7-10,82,70,60,64,56,-100,86,64,43,30.00,29.86,0,0,0,0.00
2013-7-11,83,72,58,62,59,56,94,67,41,30.06,29.92,0,0,0,0.00
2013-7-12,87,77,69,65,61,57,69,59,46,29.94,29.82,0,0,0,0.00
2013-7-13,77,72,67,69,65,59,93,79,59,30.02,29.84,0,0,0,0.00
2013-7-14,86,75,69,70,66,60,86,72,54,30.12,29.99,0,0,0,0.00
2013-7-15,85,78,70,70,67,64,86,71,52,30.17,30.09,0,0,0,0.00
2013-7-16,90,82,74,74,71,69,86,72,54,30.14,30.09,0,0,0,0.00
2013-7-17,90,82,74,74,71,67,82,69,53,30.18,30.03,0,0,0,0.00
2013-7-18,90,83,75,73,71,69,82,68,52,30.03,29.69,0,0,0,0.00
2013-7-19,83,78,72,71,65,59,82,65,48,29.86,29.65,0,0,0,0.00
2013-7-20,83,71,63,66,60,-100,88,72,49,29.90,29.82,0,0,0,0.00
2013-7-21,84,71,59,70,62,52,91,74,57,29.91,29.73,0,0,0,0.00
2013-7-22,84,74,66,72,65,56,89,75,51,29.82,29.62,0,0,0,0.00
2013-7-23,80,68,57,57,55,53,89,67,44,29.98,29.80,0,0,0,0.00
2013-7-24,80,68,59,63,57,52,85,69,45,30.04,29.92,0,0,0,0.00
2013-7-25,79,71,61,68,61,57,88,72,53,29.93,29.85,0,0,0,0.00
2013-7-26,71,63,55,63,55,48,88,75,60,30.05,29.86,0,0,0,0.00
2013-7-27,63,56,50,50,48,46,90,74,55,30.06,29.92,0,0,0,0.00
2013-7-28,76,60,48,56,50,44,88,70,48,30.04,29.94,0,0,0,0.00
2013-7-29,76,65,53,59,55,50,93,73,46,30.10,30.03,0,0,0,0.00
2013-7-30,71,66,62,65,61,56,93,86,69,30.05,30.00,0,0,0,0.00
2013-7-31,77,68,61,66,60,52,94,78,46,30.04,29.95,0,0,0,0.00
2013-8-1,81,68,55,63,56,51,86,69,46,30.00,29.82,0,0,0,0.00
2013-8-2,78,68,58,59,55,52,86,67,43,30.00,29.81,0,0,0,0.00
2013-8-3,80,66,54,56,53,50,92,66,38,30.16,30.00,0,0,0,0.00
2013-8-4,75,64,53,60,54,49,91,73,49,30.20,29.96,0,0,0,0.00
2013-8-5,81,68,61,69,62,56,94,81,61,29.99,29.74,0,0,0,0.00
2013-8-6,83,67,56,69,61,54,94,80,57,29.80,29.63,0,0,0,0.00
2013-8-7,78,66,58,58,56,51,94,72,41,29.99,29.74,0,0,0,0.00
2013-8-8,72,63,55,61,57,53,94,82,61,30.02,29.95,0,0,0,0.00
2013-8-9,74,66,58,59,55,52,93,72,49,30.09,29.97,0,0,0,0.00
2013-8-10,77,67,59,59,55,52,87,67,46,30.16,30.04,0,0,0,0.00
2013-8-11,82,71,64,67,62,57,89,74,56,30.05,29.95,0,0,0,0.00
2013-8-12,81,69,59,62,58,54,91,71,42,30.02,29.96,0,0,0,0.00
2013-8-13,79,65,55,56,50,-100,92,64,36,30.16,30.02,0,0,0,0.00
2013-8-14,76,62,52,56,50,-100,93,70,42,30.16,30.06,0,0,0,0.00
2013-8-15,77,60,56,60,40,-100,89,67,49,30.10,30.04,0,0,0,0.00
2013-8-16,78,66,57,61,53,-100,92,69,44,30.16,30.09,0,0,0,0.00
2013-8-17,79,67,58,59,55,-100,90,68,49,30.16,30.06,0,0,0,0.00
2013-8-18,80,70,61,61,58,55,81,65,48,30.09,29.95,0,0,0,0.00
2013-8-19,84,70,66,70,53,-100,81,72,62,29.98,29.84,0,0,0,0.00
2013-8-20,86,76,70,73,67,-100,85,77,65,29.85,29.79,0,0,0,0.00
2013-8-21,89,78,71,76,71,61,90,80,63,29.94,29.77,0,0,0,0.00
2013-8-22,89,76,65,62,56,51,70,52,31,30.07,29.93,0,0,0,0.00
2013-8-23,86,73,61,68,61,51,81,66,53,30.09,29.98,0,0,0,0.00
2013-8-24,87,77,71,73,67,-100,84,75,60,30.00,29.86,0,0,0,0.00
2013-8-25,92,83,76,76,73,70,82,71,58,29.93,29.85,0,0,0,0.00
2013-8-26,92,83,76,78,74,72,88,76,60,29.91,29.76,0,0,0,0.00
2013-8-27,93,81,75,79,74,70,86,80,63,29.77,29.72,0,0,0,0.00
2013-8-28,88,84,78,75,72,71,83,70,59,29.94,29.89,0,0,0,0.00
2013-8-29,90,81,75,76,72,68,90,75,53,29.93,29.78,0,0,0,0.00
2013-8-30,87,76,69,71,67,64,89,75,53,29.87,29.75,0,0,0,0.00
2013-8-31,87,72,65,70,63,-100,91,76,56,29.84,29.66,0,0,0,0.00
2013-9-1,71,67,59,64,60,54,89,78,66,29.95,29.69,0,0,0,0.00
2013-9-2,70,58,51,56,52,48,93,82,57,30.08,29.95,0,0,0,0.00
2013-9-3,77,63,50,62,55,48,94,77,54,30.07,29.96,0,0,0,0.00
2013-9-4,89,72,60,70,63,57,93,73,45,30.10,29.97,0,0,0,0.00
2013-9-5,86,73,64,69,61,55,84,68,53,30.16,30.05,0,0,0,0.00
2013-9-6,88,78,70,70,68,65,90,73,51,30.05,29.81,0,0,0,0.00
2013-9-7,95,79,68,73,66,-100,92,69,43,29.95,29.80,0,0,0,0.00
2013-9-8,76,69,65,65,61,57,82,76,69,29.98,29.83,0,0,0,0.00
2013-9-9,92,77,69,74,69,64,92,77,50,29.83,29.57,0,0,0,0.00
2013-9-10,81,72,67,69,64,61,91,78,52,29.94,29.70,0,0,0,0.00
2013-9-11,84,72,63,63,58,50,89,64,35,30.03,29.93,0,0,0,0.00
2013-9-12,74,64,53,56,50,46,90,62,39,30.20,30.03,0,0,0,0.00
2013-9-13,72,59,48,49,47,44,88,66,42,30.26,30.06,0,0,0,0.00
2013-9-14,69,58,52,56,48,-100,92,72,49,30.06,29.86,0,0,0,0.00
2013-9-15,68,58,51,57,53,46,93,83,62,30.29,29.85,0,0,0,0.00
2013-9-16,69,56,43,48,45,40,90,69,44,30.39,30.23,0,0,0,0.00
2013-9-17,65,57,52,57,51,45,92,79,68,30.23,29.91,0,0,0,0.00
2013-9-18,71,62,59,68,60,57,94,93,90,29.91,29.64,0,0,0,0.00
2013-9-19,76,70,63,69,65,54,94,85,72,29.76,29.59,0,0,0,0.00
2013-9-20,63,57,51,55,51,46,90,80,62,29.92,29.75,0,0,0,0.00
2013-9-21,68,53,45,51,44,-100,92,77,51,29.98,29.89,0,0,0,0.00
2013-9-22,76,61,49,58,52,46,91,72,51,29.94,29.80,0,0,0,0.00
2013-9-23,74,64,56,55,52,49,80,68,48,29.90,29.82,0,0,0,0.00
2013-9-24,80,63,53,58,53,49,86,70,43,29.93,29.88,0,0,0,0.00
2013-9-25,76,64,53,56,53,50,92,71,46,29.93,29.81,0,0,0,0.00
2013-9-26,81,68,58,62,57,51,80,68,51,29.88,29.77,0,0,0,0.00
2013-9-27,83,73,67,65,62,60,81,69,50,29.86,29.73,0,0,0,0.00
2013-9-28,73,60,49,62,52,-100,91,77,66,29.91,29.58,0,0,0,0.00
2013-9-29,76,60,47,51,46,41,82,62,35,29.94,29.76,0,0,0,0.00
2013-9-30,79,67,58,54,50,46,70,56,41,29.76,29.54,0,0,0,0.00
2013-10-1,67,59,54,42,39,38,59,49,35,29.95,29.87,0,0,0,0.00
2013-10-2,76,60,45,55,45,39,93,62,30,30.01,29.81,0,0,0,0.00
2013-10-3,58,56,54,56,54,52,94,93,91,29.92,29.81,0,0,0,0.00
2013-10-4,57,55,53,55,53,51,94,92,88,29.96,29.80,0,0,0,0.00
2013-10-5,58,53,42,56,49,40,94,86,66,29.82,29.72,0,0,0,0.00
2013-10-6,52,46,41,50,44,39,95,93,88,29.85,29.68,0,0,0,0.00
2013-10-7,69,53,43,49,44,40,92,73,36,29.96,29.83,0,0,0,0.00
2013-10-8,76,63,52,49,46,43,76,56,35,29.95,29.78,0,0,0,0.00
2013-10-9,76,65,57,54,50,47,74,60,44,29.99,29.88,0,0,0,0.00
2013-10-10,77,64,55,57,51,46,76,62,45,29.99,29.82,0,0,0,0.00
2013-10-11,72,64,57,61,54,50,86,71,56,29.83,29.57,0,0,0,0.00
2013-10-12,59,50,46,53,41,-100,83,75,65,30.17,29.65,0,0,0,0.00
2013-10-13,63,48,36,42,37,33,91,69,36,30.44,30.17,0,0,0,0.00
2013-10-14,53,48,41,46,40,37,91,75,60,30.40,29.96,0,0,0,0.00
2013-10-15,52,49,45,50,47,42,94,92,91,29.95,29.65,0,0,0,0.00
2013-10-16,54,46,41,43,39,35,93,78,52,29.96,29.83,0,0,0,0.00
2013-10-17,56,46,40,44,39,33,92,78,55,29.88,29.77,0,0,0,0.00
2013-10-18,52,43,37,39,35,30,92,73,46,29.98,29.86,0,0,0,0.00
2013-10-19,46,39,34,39,33,-100,92,83,73,29.85,29.69,0,0,0,0.00
2013-10-20,45,37,30,39,33,27,92,86,75,29.91,29.62,0,0,0,0.00
2013-10-21,39,34,29,33,24,20,84,67,55,29.98,29.90,0,0,0,0.00
2013-10-22,41,33,26,31,27,22,90,79,63,30.06,29.97,0,0,0,0.00
2013-10-23,38,34,32,29,25,20,85,72,56,30.14,30.02,0,0,0,0.00
2013-10-24,42,36,31,31,27,22,84,69,57,30.33,30.14,0,0,0,0.00
2013-10-25,58,48,27,43,36,24,89,65,53,30.29,29.79,0,0,0,0.00
2013-10-26,50,42,35,41,30,-100,76,63,50,30.11,29.80,0,0,0,0.00
2013-10-27,61,42,31,36,31,26,83,65,38,30.14,29.82,0,0,0,0.00
2013-10-28,47,36,30,30,24,-100,84,66,40,30.44,30.14,0,0,0,0.00
2013-10-29,40,36,30,36,30,25,91,77,72,30.43,30.11,0,0,0,0.00
2013-10-30,48,44,38,46,42,36,94,93,91,30.11,29.67,0,0,0,0.00
2013-10-31,48,42,39,46,40,36,95,93,87,29.67,29.41,0,0,0,0.00
2013-11-1,51,42,37,39,36,33,91,79,59,29.86,29.42,0,0,0,0.00
2013-11-2,49,39,32,36,31,-100,90,76,51,30.10,29.87,0,0,0,0.00
2013-11-3,55,45,36,36,34,31,90,67,45,30.11,29.86,0,0,0,0.00
2013-11-4,48,44,36,43,37,32,89,76,62,30.14,29.80,0,0,0,0.00
2013-11-5,43,34,29,32,29,26,92,82,53,30.26,30.05,0,0,0,0.00
2013-11-6,36,32,27,31,27,23,92,82,70,30.19,30.05,0,0,0,0.00
2013-11-7,35,29,23,30,25,21,92,87,80,30.27,30.19,0,0,0,0.00
2013-11-8,45,36,24,38,29,22,92,77,58,30.22,29.61,0,0,0,0.00
2013-11-9,43,39,35,39,31,-100,87,74,61,30.22,29.64,0,0,0,0.00
2013-11-10,40,37,33,31,29,27,80,74,66,30.34,30.11,0,0,0,0.00
2013-11-11,36,24,15,31,13,8,82,64,50,30.77,30.14,0,0,0,0.00
2013-11-12,28,19,11,15,10,6,84,68,48,30.84,30.50,0,0,0,0.00
2013-11-13,53,36,22,35,25,14,72,63,50,30.49,29.89,0,0,0,0.00
2013-11-14,54,41,35,40,34,30,85,75,59,29.88,29.75,0,0,0,0.00
2013-11-15,55,44,32,40,35,29,90,74,53,29.85,29.62,0,0,0,0.00
2013-11-16,48,43,40,46,39,-100,94,87,71,29.62,29.21,0,0,0,0.00
2013-11-17,44,39,31,42,35,25,94,84,77,29.84,29.29,0,0,0,0.00
2013-11-18,35,29,23,24,21,19,85,73,59,30.28,29.85,0,0,0,0.00
2013-11-19,46,37,25,32,27,21,84,68,51,30.28,29.91,0,0,0,0.00
2013-11-20,46,42,38,34,31,27,86,65,50,30.02,29.87,0,0,0,0.00
2013-11-21,38,30,23,35,25,15,90,82,70,30.55,30.03,0,0,0,0.00
2013-11-22,35,22,12,15,10,3,84,64,32,30.69,30.50,0,0,0,0.00
2013-11-23,19,11,6,5,1,-100,81,67,46,30.91,30.70,0,0,0,0.00
2013-11-24,32,19,6,17,9,1,85,66,48,30.78,30.03,0,0,0,0.00
2013-11-25,38,33,27,28,24,16,83,69,57,30.10,29.93,0,0,0,0.00
2013-11-26,30,20,13,21,9,3,74,60,49,30.43,30.10,0,0,0,0.00
2013-11-27,23,16,6,12,8,2,88,70,56,30.45,30.11,0,0,0,0.00
2013-12-8,12,6,-5,8,3,-9,87,84,78,30.68,30.11,0,0,0,0.00
2013-12-9,10,0,-5,7,-5,-10,87,79,69,30.19,29.95,0,0,0,0.00
2013-12-10,13,6,1,10,1,-5,87,78,70,30.35,29.84,0,0,0,0.00
2013-12-11,5,-4,-9,-2,-10,-14,79,73,66,30.66,30.35,0,0,0,0.00
2013-12-12,18,10,0,11,5,-6,92,78,68,30.40,30.20,0,0,0,0.00
2013-12-13,17,13,10,10,8,6,85,79,70,30.34,30.17,0,0,0,0.00
2013-12-14,13,8,0,7,2,-100,85,80,75,30.34,30.16,0,0,0,0.00
2013-12-15,4,1,-1,-5,-7,-9,77,70,59,30.23,30.17,0,0,0,0.00
2013-12-16,21,10,2,18,5,-5,89,80,70,30.20,29.98,0,0,0,0.00
2013-12-17,33,23,8,28,17,4,87,76,62,30.14,29.94,0,0,0,0.00
2013-12-18,35,23,6,27,18,3,89,79,67,30.10,29.69,0,0,0,0.00
2013-12-19,27,17,14,22,12,8,87,79,69,30.10,29.84,0,0,0,0.00
2013-12-20,18,14,11,13,11,8,87,84,79,30.08,29.90,0,0,0,0.00
2013-12-21,21,17,15,15,11,-100,85,81,76,30.04,29.91,0,0,0,0.00
2013-12-22,16,12,2,11,8,-3,86,83,79,30.31,30.00,0,0,0,0.00
2013-12-27,39,29,15,31,25,12,92,85,71,30.20,29.92,0,0,0,0.00
2013-12-28,44,30,19,32,24,-100,93,82,60,30.02,29.65,0,0,0,0.00
2013-12-29,18,-2,-14,13,-10,-20,82,67,53,30.38,30.03,0,0,0,0.00
2013-12-30,3,-5,-15,-2,-9,-21,84,79,75,30.39,30.27,0,0,0,0.00
2013-12-31,0,-6,-10,-6,-11,-15,92,77,66,30.50,30.29,0,0,0,0.00
2014-1-1,1,-2,-7,-7,-10,-14,73,70,67,30.59,30.50,0,0,0,0.00
2014-1-2,3,-4,-11,-8,-13,-16,78,66,45,30.60,30.47,0,0,0,0.00